Time;durP1;ratioP1;P1;durP2;ratioP2;P2;SDS_P1;SDS_P2;PMS_P1;PMS_P2;Temp;Humidity;BMP_temperature;BMP_pressure;BME280_temperature;BME280_humidity;BME280_pressure;Samples;Min_cycle;Max_cycle;Signal;HPM_P1;HPM_P2
2023/10/14 00:02:21;;;;;;;9.68;5.20;;;;;;;19.00;88.61;99161.59;7391652;19;20872;-64
2023/10/14 00:04:52;;;;;;;8.45;4.30;;;;;;;19.09;87.74;99175.31;7387990;19;20888;-64
2023/10/14 00:07:20;;;;;;;11.15;4.95;;;;;;;19.20;87.55;99165.38;7392264;19;20389;-64
2023/10/14 00:09:50;;;;;;;11.77;4.68;;;;;;;19.25;86.83;99162.66;7391880;19;20352;-65
2023/10/14 00:12:17;;;;;;;10.60;4.93;;;;;;;19.31;86.35;99150.84;7390085;19;20396;-65
2023/10/14 00:14:44;;;;;;;10.23;4.85;;;;;;;19.38;85.53;99143.31;7389578;19;20376;-64
2023/10/14 00:17:18;;;;;;;8.77;4.50;;;;;;;19.41;84.25;99140.06;7391771;19;20371;-64
2023/10/14 00:19:55;;;;;;;10.43;4.90;;;;;;;19.51;84.35;99140.06;7393198;19;20356;-64
2023/10/14 00:22:26;;;;;;;10.40;4.30;;;;;;;19.54;83.79;99139.50;7389421;19;20927;-64
2023/10/14 00:24:53;;;;;;;9.73;4.60;;;;;;;19.60;83.27;99126.06;7392886;19;20358;-64
2023/10/14 00:27:21;;;;;;;10.45;4.65;;;;;;;19.65;82.86;99128.72;7392731;19;20378;-64
2023/10/14 00:29:49;;;;;;;9.20;4.47;;;;;;;19.70;82.30;99126.03;7391432;19;20867;-64
2023/10/14 00:32:15;;;;;;;10.50;4.50;;;;;;;19.73;82.07;99126.31;7388693;19;20372;-64
2023/10/14 00:34:42;;;;;;;12.43;4.88;;;;;;;19.78;82.25;99112.03;7385184;19;20377;-64
2023/10/14 00:37:09;;;;;;;11.02;4.60;;;;;;;19.78;81.51;99106.66;7387979;19;20372;-64
2023/10/14 00:39:36;;;;;;;9.02;4.75;;;;;;;19.84;81.27;99099.38;7387981;19;20349;-63
2023/10/14 00:42:07;;;;;;;11.95;4.55;;;;;;;19.86;80.74;99098.00;7386491;19;20356;-63
2023/10/14 00:44:35;;;;;;;9.85;4.72;;;;;;;19.86;80.64;99078.38;7389921;19;20810;-64
2023/10/14 00:47:06;;;;;;;9.18;4.43;;;;;;;19.85;80.53;99112.56;7390147;19;20349;-64
2023/10/14 00:49:35;;;;;;;10.35;4.40;;;;;;;19.88;80.29;99076.22;7391777;19;20348;-63
2023/10/14 00:52:10;;;;;;;10.57;4.70;;;;;;;19.87;79.95;99067.34;7387449;19;20729;-63
2023/10/14 00:54:53;;;;;;;10.02;4.75;;;;;;;19.86;80.00;99059.53;7387530;19;20412;-63
2023/10/14 00:59:51;;;;;;;7.70;4.50;;;;;;;19.81;80.08;99068.44;7389516;19;20357;-63
2023/10/14 01:02:29;;;;;;;10.13;4.70;;;;;;;19.81;80.04;99046.13;7392366;19;20889;-63
2023/10/14 01:04:57;;;;;;;8.23;4.20;;;;;;;19.80;80.39;99077.56;7385312;19;20363;-62
2023/10/14 01:07:24;;;;;;;12.35;4.63;;;;;;;19.79;80.44;99054.47;7389985;19;20404;-63
2023/10/14 01:09:54;;;;;;;8.07;4.20;;;;;;;19.72;79.44;99078.16;7389329;19;20440;-63
2023/10/14 01:12:37;;;;;;;9.25;4.35;;;;;;;19.75;79.57;99064.16;7387835;19;20390;-63
2023/10/14 01:15:13;;;;;;;10.75;4.70;;;;;;;19.79;79.32;99067.91;7391094;19;20404;-64
2023/10/14 01:17:42;;;;;;;9.32;4.65;;;;;;;19.81;78.86;99068.44;7388867;19;20444;-63
2023/10/14 01:22:55;;;;;;;7.73;4.33;;;;;;;19.83;78.53;99066.28;7389121;19;20402;-64
2023/10/14 01:25:25;;;;;;;10.48;4.57;;;;;;;19.82;77.27;99047.72;7390471;19;20438;-63
2023/10/14 01:27:52;;;;;;;8.88;4.47;;;;;;;19.87;77.21;99067.34;7391319;19;20924;-64
2023/10/14 01:30:25;;;;;;;8.82;4.38;;;;;;;19.85;77.09;99072.19;7386460;19;20371;-63
2023/10/14 01:32:56;;;;;;;10.48;4.78;;;;;;;19.90;76.53;99055.22;7388398;19;20392;-63
2023/10/14 01:37:55;;;;;;;11.13;4.47;;;;;;;19.95;76.79;99050.63;7391758;19;20348;-63
2023/10/14 01:42:58;;;;;;;10.32;4.68;;;;;;;20.07;76.51;99052.97;7389541;19;20856;-63
2023/10/14 01:45:31;;;;;;;8.90;4.87;;;;;;;20.08;75.48;99030.38;7389902;19;20884;-63
2023/10/14 01:50:39;;;;;;;8.82;4.75;;;;;;;20.15;75.86;99052.38;7391628;19;20352;-61
2023/10/14 01:53:12;;;;;;;9.73;5.00;;;;;;;20.12;76.30;99052.13;7385233;19;20381;-62
2023/10/14 01:55:42;;;;;;;10.40;5.28;;;;;;;20.08;77.20;99068.06;7389982;19;20570;-63
2023/10/14 02:03:54;;;;;;;2.72;1.38;;;;;;;18.65;86.30;99084.44;7389442;19;20357;-62
2023/10/14 02:06:32;;;;;;;2.92;1.15;;;;;;;18.10;91.19;99094.78;7389795;19;20376;-68
2023/10/14 02:09:04;;;;;;;4.35;1.60;;;;;;;17.73;97.10;99112.59;7386178;19;20495;-70
2023/10/14 02:11:34;;;;;;;2.47;0.87;;;;;;;17.03;100.00;99127.16;7384963;19;20393;-69
2023/10/14 02:14:06;;;;;;;3.97;0.93;;;;;;;16.61;100.00;99104.53;7392570;19;20353;-71
2023/10/14 02:16:42;;;;;;;5.15;1.15;;;;;;;16.37;100.00;99124.63;7398979;19;20385;-70
2023/10/14 02:19:36;;;;;;;7.43;1.90;;;;;;;16.18;100.00;99126.84;7395203;19;20502;-70
2023/10/14 02:22:09;;;;;;;2.63;0.93;;;;;;;16.03;100.00;99154.22;7397495;19;20370;-70
2023/10/14 02:24:37;;;;;;;4.60;0.90;;;;;;;15.85;100.00;99248.88;7397280;19;20363;-69
2023/10/14 02:27:11;;;;;;;2.17;0.70;;;;;;;15.14;100.00;99307.28;7394409;19;20389;-70
2023/10/14 02:29:43;;;;;;;1.60;0.70;;;;;;;14.58;100.00;99222.41;7393984;19;20397;-73
2023/10/14 02:32:15;;;;;;;2.60;0.73;;;;;;;14.14;100.00;99234.53;7394355;19;20357;-71
2023/10/14 02:34:45;;;;;;;2.30;0.60;;;;;;;13.75;100.00;99245.69;7394710;19;20420;-70
2023/10/14 02:37:15;;;;;;;2.88;0.55;;;;;;;13.52;100.00;99248.34;7395501;19;20364;-70
2023/10/14 02:39:43;;;;;;;1.42;0.50;;;;;;;13.32;100.00;99243.31;7396831;19;20785;-70
2023/10/14 02:42:14;;;;;;;2.58;0.90;;;;;;;13.25;100.00;99238.03;7396822;19;20365;-70
2023/10/14 02:44:51;;;;;;;2.75;1.00;;;;;;;13.14;100.00;99257.47;7393348;19;20412;-71
2023/10/14 02:47:21;;;;;;;2.80;1.00;;;;;;;13.08;100.00;99256.53;7396524;19;20852;-70
2023/10/14 02:49:55;;;;;;;3.40;1.10;;;;;;;13.14;100.00;99254.81;7392915;19;20360;-70
2023/10/14 02:52:28;;;;;;;3.80;1.00;;;;;;;12.97;100.00;99278.59;7394041;19;20353;-70
2023/10/14 02:57:46;;;;;;;2.90;0.88;;;;;;;12.89;100.00;99277.03;7396473;19;20727;-70
2023/10/14 03:00:32;;;;;;;6.13;1.45;;;;;;;12.91;100.00;99248.34;7392387;19;20364;-70
2023/10/14 03:03:02;;;;;;;4.85;1.13;;;;;;;12.83;100.00;99273.41;7389249;19;20345;-69
2023/10/14 03:06:06;;;;;;;4.88;1.20;;;;;;;12.84;100.00;99311.50;7390689;19;20384;-69
2023/10/14 03:08:23;;;;;;;4.80;1.15;;;;;;;12.88;100.00;99306.53;7387763;19;20376;-68
2023/10/14 03:10:56;;;;;;;5.93;1.30;;;;;;;12.89;100.00;99306.31;7391046;19;20407;-68
2023/10/14 03:13:23;;;;;;;4.63;1.10;;;;;;;12.92;100.00;99308.56;7389053;19;20385;-68
2023/10/14 03:15:52;;;;;;;2.90;0.77;;;;;;;12.90;100.00;99342.56;7392995;19;20353;-68
2023/10/14 03:18:20;;;;;;;2.70;1.00;;;;;;;12.96;100.00;99365.63;7395765;19;20364;-68
2023/10/14 03:23:23;;;;;;;3.50;1.20;;;;;;;12.94;100.00;99370.38;7393074;19;20382;-67
2023/10/14 03:25:53;;;;;;;4.13;1.02;;;;;;;13.02;100.00;99366.56;7394492;19;20455;-68
2023/10/14 03:28:23;;;;;;;2.40;1.05;;;;;;;13.05;100.00;99392.75;7392589;19;20447;-67
2023/10/14 03:30:56;;;;;;;7.82;1.40;;;;;;;13.09;100.00;99398.44;7395133;19;20715;-67
2023/10/14 03:33:27;;;;;;;5.20;1.10;;;;;;;13.01;100.00;99407.56;7392512;19;20349;-68
2023/10/14 03:36:05;;;;;;;3.50;1.17;;;;;;;13.05;100.00;99420.19;7390591;19;20356;-68
2023/10/14 03:41:19;;;;;;;4.80;1.50;;;;;;;13.06;100.00;99426.31;7392908;19;20379;-69
2023/10/14 03:43:58;;;;;;;3.33;1.45;;;;;;;13.00;100.00;99443.97;7390237;19;20356;-69
2023/10/14 03:48:58;;;;;;;3.35;1.23;;;;;;;13.02;100.00;99454.41;7395221;19;20394;-68
2023/10/14 03:51:25;;;;;;;3.58;1.20;;;;;;;13.00;100.00;99483.09;7393102;19;20373;-68
2023/10/14 03:53:54;;;;;;;7.18;1.20;;;;;;;13.01;100.00;99460.78;7393382;19;20356;-68
2023/10/14 03:56:24;;;;;;;3.60;1.10;;;;;;;13.02;100.00;99481.03;7394941;19;20357;-68
2023/10/14 03:58:57;;;;;;;3.20;1.05;;;;;;;12.99;100.00;99470.84;7392842;19;20384;-67
2023/10/14 04:01:33;;;;;;;3.38;1.30;;;;;;;12.98;100.00;99477.19;7394434;19;20352;-67
2023/10/14 04:04:14;;;;;;;3.05;0.90;;;;;;;12.95;100.00;99481.09;7394744;19;20371;-66
2023/10/14 04:06:42;;;;;;;4.03;1.20;;;;;;;12.94;100.00;99484.81;7388486;19;20419;-67
2023/10/14 04:09:10;;;;;;;4.25;1.30;;;;;;;12.92;100.00;99497.53;7393918;19;20358;-66
2023/10/14 04:11:38;;;;;;;4.60;1.10;;;;;;;12.90;100.00;99496.94;7394755;19;20908;-66
2023/10/14 04:14:08;;;;;;;5.25;1.50;;;;;;;12.91;100.00;99503.88;7390561;19;20356;-66
2023/10/14 04:17:20;;;;;;;2.60;0.90;;;;;;;12.89;100.00;99502.47;7392392;19;20510;-66
2023/10/14 04:19:44;;;;;;;5.43;1.17;;;;;;;12.74;100.00;99540.06;7391482;19;20373;-67
2023/10/14 04:22:45;;;;;;;4.43;1.02;;;;;;;12.49;100.00;99564.78;7389822;19;20360;-69
2023/10/14 04:25:19;;;;;;;5.10;1.40;;;;;;;12.33;100.00;99528.91;7393325;19;20365;-68
2023/10/14 04:30:25;;;;;;;9.98;2.13;;;;;;;12.07;100.00;99559.13;7392528;19;20376;-69
2023/10/14 04:35:25;;;;;;;7.57;1.60;;;;;;;11.69;100.00;99557.22;7392821;19;20397;-68
2023/10/14 04:37:54;;;;;;;5.97;1.58;;;;;;;11.60;100.00;99555.81;7393654;19;20856;-68
2023/10/14 04:43:49;;;;;;;9.75;1.90;;;;;;;11.54;100.00;99556.63;7392630;19;20348;-67
2023/10/14 04:46:16;;;;;;;10.02;1.50;;;;;;;11.53;100.00;99553.16;7393988;19;20685;-67
2023/10/14 04:48:51;;;;;;;10.13;2.00;;;;;;;11.56;100.00;99559.91;7392704;19;20389;-67
2023/10/14 04:51:21;;;;;;;7.57;1.73;;;;;;;11.57;100.00;99561.53;7395252;19;20344;-66
2023/10/14 04:53:51;;;;;;;9.10;1.75;;;;;;;11.63;100.00;99571.34;7393771;19;20364;-66
2023/10/14 04:56:22;;;;;;;8.75;1.80;;;;;;;11.64;100.00;99583.59;7394499;19;20345;-66
2023/10/14 04:58:52;;;;;;;5.72;1.50;;;;;;;11.65;100.00;99593.19;7393539;19;20344;-66
2023/10/14 05:01:24;;;;;;;6.75;1.65;;;;;;;11.64;100.00;99591.56;7391113;19;20352;-66
2023/10/14 05:03:57;;;;;;;7.72;1.40;;;;;;;11.65;100.00;99601.16;7396158;19;20385;-66
2023/10/14 05:06:29;;;;;;;11.23;1.80;;;;;;;11.65;100.00;99606.47;7392098;19;20393;-65
2023/10/14 05:08:57;;;;;;;8.30;1.50;;;;;;;11.63;100.00;99603.22;7393730;19;20368;-65
2023/10/14 05:11:25;;;;;;;10.60;1.88;;;;;;;11.59;100.00;99617.94;7393847;19;20423;-65
2023/10/14 05:14:09;;;;;;;7.45;1.55;;;;;;;11.58;100.00;99621.59;7390438;19;20707;-65
2023/10/14 05:16:57;;;;;;;7.32;1.30;;;;;;;11.48;100.00;99642.47;7393057;19;20698;-66
2023/10/14 05:19:25;;;;;;;8.32;1.83;;;;;;;11.48;100.00;99632.66;7386980;19;20402;-65
2023/10/14 05:22:04;;;;;;;8.52;1.85;;;;;;;11.50;100.00;99648.41;7395650;19;20368;-65
2023/10/14 05:24:31;;;;;;;10.00;1.90;;;;;;;11.44;100.00;99663.31;7393248;19;20869;-66
2023/10/14 05:27:01;;;;;;;12.80;2.03;;;;;;;11.39;100.00;99679.88;7393238;19;20368;-66
2023/10/14 05:29:29;;;;;;;9.80;2.23;;;;;;;11.37;100.00;99667.81;7384073;19;20352;-65
2023/10/14 05:32:15;;;;;;;9.57;2.00;;;;;;;11.33;100.00;99688.66;7391839;19;20385;-66
2023/10/14 05:34:45;;;;;;;9.13;1.77;;;;;;;11.36;100.00;99690.88;7390491;19;20357;-66
2023/10/14 05:37:12;;;;;;;9.55;1.80;;;;;;;11.33;100.00;99698.47;7393300;19;20371;-66
2023/10/14 05:39:40;;;;;;;9.20;1.85;;;;;;;11.31;100.00;99701.31;7392081;19;20348;-66
2023/10/14 05:42:15;;;;;;;8.95;2.20;;;;;;;11.29;100.00;99710.50;7390707;19;20696;-65
2023/10/14 05:44:47;;;;;;;11.15;1.90;;;;;;;11.26;100.00;99722.31;7389696;19;20383;-65
2023/10/14 05:47:15;;;;;;;12.93;2.40;;;;;;;11.23;100.00;99714.78;7386712;19;20391;-65
2023/10/14 05:49:43;;;;;;;11.82;2.80;;;;;;;11.23;100.00;99728.06;7395748;19;20365;-65
2023/10/14 05:52:11;;;;;;;9.45;2.45;;;;;;;11.17;100.00;99742.13;7395423;19;20907;-65
2023/10/14 05:54:39;;;;;;;8.98;2.30;;;;;;;11.16;100.00;99751.13;7397558;19;20400;-65
2023/10/14 05:57:08;;;;;;;11.00;2.30;;;;;;;11.18;100.00;99757.06;7398189;19;20836;-65
2023/10/14 05:59:37;;;;;;;8.87;1.70;;;;;;;11.19;100.00;99754.19;7395978;19;20361;-65
2023/10/14 06:02:07;;;;;;;10.40;2.47;;;;;;;11.17;100.00;99764.19;7389969;19;20377;-67
2023/10/14 06:04:41;;;;;;;11.27;2.13;;;;;;;11.16;100.00;99780.34;7395941;19;20402;-64
2023/10/14 06:07:09;;;;;;;12.43;2.53;;;;;;;11.15;100.00;99786.63;7396065;19;20380;-65
2023/10/14 06:09:36;;;;;;;8.25;1.80;;;;;;;11.14;100.00;99800.94;7391822;19;20384;-66
2023/10/14 06:12:12;;;;;;;11.07;2.40;;;;;;;11.11;100.00;99812.75;7397397;19;20763;-65
2023/10/14 06:14:48;;;;;;;9.63;2.03;;;;;;;11.14;100.00;99816.88;7392546;19;20874;-65
2023/10/14 06:17:15;;;;;;;9.70;2.15;;;;;;;11.16;100.00;99820.16;7395173;19;20958;-65
2023/10/14 06:19:43;;;;;;;12.82;2.53;;;;;;;11.19;100.00;99820.53;7395503;19;20337;-66
2023/10/14 06:22:13;;;;;;;8.15;1.95;;;;;;;11.19;100.00;99835.66;7394034;19;20353;-65
2023/10/14 06:24:42;;;;;;;9.38;1.80;;;;;;;11.24;100.00;99843.81;7392883;19;20361;-65
2023/10/14 06:27:20;;;;;;;13.40;2.72;;;;;;;11.26;100.00;99846.28;7392001;19;20352;-66
2023/10/14 06:29:47;;;;;;;10.30;2.13;;;;;;;11.28;100.00;99855.69;7394106;19;20809;-65
2023/10/14 06:32:14;;;;;;;11.07;2.28;;;;;;;11.32;100.00;99856.94;7384711;19;20369;-66
2023/10/14 06:34:57;;;;;;;11.85;1.83;;;;;;;11.34;100.00;99881.44;7387021;19;20904;-65
2023/10/14 06:37:25;;;;;;;9.27;1.98;;;;;;;11.34;100.00;99876.13;7395111;19;20384;-65
2023/10/14 06:39:54;;;;;;;13.45;2.97;;;;;;;11.38;100.00;99895.97;7397059;19;20360;-65
2023/10/14 06:42:22;;;;;;;9.15;2.08;;;;;;;11.43;100.00;99896.19;7395311;19;20361;-65
2023/10/14 06:44:51;;;;;;;8.50;1.42;;;;;;;11.43;100.00;99905.97;7393364;19;20384;-65
2023/10/14 06:47:21;;;;;;;19.00;2.50;;;;;;;11.48;100.00;99908.06;7392240;19;20352;-63
2023/10/14 06:49:49;;;;;;;11.68;2.00;;;;;;;11.51;100.00;99907.66;7398964;19;20404;-64
2023/10/14 06:52:18;;;;;;;10.60;2.25;;;;;;;11.54;100.00;99915.19;7396997;19;20355;-64
2023/10/14 06:54:46;;;;;;;12.07;1.98;;;;;;;11.57;99.76;99910.31;7393572;19;20360;-64
2023/10/14 06:57:14;;;;;;;11.15;1.90;;;;;;;11.62;98.78;99926.50;7397784;19;20360;-63
2023/10/14 06:59:41;;;;;;;10.63;1.98;;;;;;;11.66;98.30;99929.53;7395510;19;20892;-64
2023/10/14 07:02:10;;;;;;;9.73;2.00;;;;;;;11.74;98.43;99940.00;7396669;19;20364;-65
2023/10/14 07:04:38;;;;;;;8.38;2.08;;;;;;;11.78;97.98;99935.91;7395062;19;20393;-65
2023/10/14 07:07:09;;;;;;;16.05;2.55;;;;;;;11.83;98.20;99946.75;7395811;19;20371;-65
2023/10/14 07:09:38;;;;;;;10.50;2.13;;;;;;;11.88;97.92;99962.16;7397107;19;20360;-65
2023/10/14 07:12:14;;;;;;;10.18;2.58;;;;;;;11.93;97.35;99949.06;7396443;19;20354;-65
2023/10/14 07:14:44;;;;;;;9.97;2.20;;;;;;;11.95;97.15;99955.00;7391491;19;20369;-65
2023/10/14 07:17:17;;;;;;;9.82;2.17;;;;;;;11.96;96.36;99950.47;7385419;19;20376;-67
2023/10/14 07:19:46;;;;;;;14.83;2.10;;;;;;;12.03;95.76;99962.78;7393635;19;20388;-67
2023/10/14 07:22:15;;;;;;;7.07;1.80;;;;;;;12.08;94.83;99962.16;7390608;19;20368;-67
2023/10/14 07:24:42;;;;;;;11.13;2.40;;;;;;;12.14;94.00;99976.50;7396382;19;20428;-66
2023/10/14 07:27:09;;;;;;;11.68;2.08;;;;;;;12.16;92.67;99966.47;7392705;19;20408;-67
2023/10/14 07:29:39;;;;;;;9.13;1.92;;;;;;;12.21;92.28;99978.13;7393378;19;20361;-67
2023/10/14 07:32:06;;;;;;;7.97;1.92;;;;;;;12.27;92.71;99994.31;7394719;19;20372;-66
2023/10/14 07:34:33;;;;;;;8.60;1.92;;;;;;;12.31;92.13;100001.66;7394398;19;21900;-67
2023/10/14 07:36:59;;;;;;;10.88;2.78;;;;;;;12.37;91.72;100006.19;7398130;19;20423;-67
2023/10/14 07:39:29;;;;;;;8.07;1.83;;;;;;;12.45;91.77;100023.75;7392951;19;20361;-66
2023/10/14 07:41:56;;;;;;;8.95;1.95;;;;;;;12.49;90.65;99995.72;7392456;19;20368;-66
2023/10/14 07:44:23;;;;;;;11.07;1.92;;;;;;;12.48;90.16;99998.63;7394803;19;20707;-67
2023/10/14 07:46:51;;;;;;;8.20;1.60;;;;;;;12.52;88.70;100021.94;7392190;19;20365;-67
2023/10/14 07:49:18;;;;;;;10.52;1.98;;;;;;;12.58;88.20;100026.44;7396118;19;20363;-67
2023/10/14 07:51:46;;;;;;;12.15;2.15;;;;;;;12.61;86.94;100026.03;7391897;19;20353;-65
2023/10/14 07:54:13;;;;;;;12.07;2.07;;;;;;;12.68;87.87;100019.88;7393466;19;20352;-65
2023/10/14 07:56:43;;;;;;;8.40;1.80;;;;;;;12.69;87.02;100034.81;7387779;19;20349;-65
2023/10/14 07:59:10;;;;;;;8.13;1.77;;;;;;;12.73;86.50;100036.03;7390233;19;21854;-65
2023/10/14 08:01:38;;;;;;;9.70;2.15;;;;;;;12.82;87.09;100032.97;7389658;19;20344;-65
2023/10/14 08:04:13;;;;;;;10.48;1.75;;;;;;;12.88;86.93;100052.66;7394104;19;20691;-65
2023/10/14 08:06:43;;;;;;;9.80;1.98;;;;;;;12.91;85.46;100056.72;7394744;19;20888;-64
2023/10/14 08:09:23;;;;;;;14.85;2.47;;;;;;;12.96;86.05;100055.09;7397145;19;20418;-65
2023/10/14 08:11:51;;;;;;;10.00;2.05;;;;;;;12.98;85.60;100062.88;7393128;19;20927;-65
2023/10/14 08:14:18;;;;;;;9.73;2.30;;;;;;;13.10;84.69;100060.41;7392605;19;20758;-65
2023/10/14 08:16:46;;;;;;;9.00;1.67;;;;;;;13.15;84.29;100064.06;7386535;19;20356;-65
2023/10/14 08:19:14;;;;;;;8.47;1.57;;;;;;;13.19;82.88;100077.78;7394109;19;20885;-65
2023/10/14 08:21:41;;;;;;;8.07;1.80;;;;;;;13.28;84.76;100063.22;7391632;19;20455;-65
2023/10/14 08:24:08;;;;;;;8.43;1.77;;;;;;;13.37;83.95;100067.34;7394621;19;20926;-65
2023/10/14 08:26:35;;;;;;;8.07;1.70;;;;;;;13.41;81.68;100079.22;7394594;19;20352;-65
2023/10/14 08:29:02;;;;;;;9.55;2.13;;;;;;;13.45;81.06;100069.78;7395228;19;20365;-65
2023/10/14 08:31:32;;;;;;;11.35;2.05;;;;;;;13.44;81.16;100076.13;7391390;19;20360;-64
2023/10/14 08:34:01;;;;;;;7.70;1.92;;;;;;;13.57;81.29;100079.81;7392063;19;20352;-64
2023/10/14 08:36:28;;;;;;;7.65;1.73;;;;;;;13.61;80.69;100089.00;7386635;19;20969;-65
2023/10/14 08:38:58;;;;;;;11.23;1.87;;;;;;;13.65;79.16;100095.56;7390094;19;20390;-64
2023/10/14 08:41:26;;;;;;;10.57;2.38;;;;;;;13.68;78.35;100091.66;7392415;19;20364;-65
2023/10/14 08:43:56;;;;;;;10.80;1.77;;;;;;;13.72;78.13;100091.03;7393311;19;20356;-65
2023/10/14 08:46:29;;;;;;;9.02;2.10;;;;;;;13.78;77.89;100095.50;7392546;19;20348;-64
2023/10/14 08:48:56;;;;;;;9.48;2.03;;;;;;;13.81;77.96;100102.25;7394799;19;20701;-64
2023/10/14 08:51:25;;;;;;;7.13;2.00;;;;;;;13.84;77.60;100112.53;7391692;19;20372;-64
2023/10/14 08:54:11;;;;;;;8.50;1.67;;;;;;;13.81;76.85;100104.94;7387963;19;20949;-64
2023/10/14 08:56:40;;;;;;;7.57;1.90;;;;;;;13.89;77.89;100117.22;7383892;19;20360;-63
2023/10/14 08:59:07;;;;;;;8.55;2.13;;;;;;;13.92;77.02;100111.44;7383948;19;20840;-64
2023/10/14 09:01:35;;;;;;;7.23;1.90;;;;;;;14.06;76.87;100113.84;7384862;19;20420;-63
2023/10/14 09:04:03;;;;;;;11.32;1.92;;;;;;;14.19;77.11;100128.97;7382877;19;20343;-63
2023/10/14 09:06:30;;;;;;;8.13;2.00;;;;;;;14.36;77.39;100126.63;7387367;19;20386;-63
2023/10/14 09:08:57;;;;;;;11.02;2.42;;;;;;;14.50;76.87;100139.94;7389833;19;20363;-63
2023/10/14 09:11:33;;;;;;;9.90;1.90;;;;;;;14.48;74.80;100132.13;7391762;19;20381;-63
2023/10/14 09:14:02;;;;;;;9.90;2.17;;;;;;;14.49;72.94;100152.44;7390383;19;20369;-63
2023/10/14 09:16:32;;;;;;;9.65;2.30;;;;;;;14.50;73.49;100146.06;7393635;19;20348;-63
2023/10/14 09:19:00;;;;;;;8.40;1.65;;;;;;;14.54;73.05;100136.59;7394223;19;20385;-62
2023/10/14 09:21:28;;;;;;;11.50;1.98;;;;;;;14.71;74.08;100139.63;7393688;19;20372;-63
2023/10/14 09:23:55;;;;;;;9.02;1.98;;;;;;;14.80;72.92;100172.22;7395271;19;20381;-62
2023/10/14 09:26:22;;;;;;;6.78;1.58;;;;;;;14.77;70.25;100151.25;7398614;19;20442;-64
2023/10/14 09:28:50;;;;;;;9.23;1.70;;;;;;;14.72;70.81;100159.91;7398305;19;20892;-63
2023/10/14 09:31:18;;;;;;;8.52;1.80;;;;;;;14.76;71.33;100155.78;7398405;19;20431;-63
2023/10/14 09:33:45;;;;;;;9.27;1.73;;;;;;;14.79;70.60;100149.19;7394967;19;20412;-63
2023/10/14 09:36:18;;;;;;;10.98;2.10;;;;;;;14.86;71.31;100158.00;7397905;19;20356;-64
2023/10/14 09:38:51;;;;;;;13.03;1.90;;;;;;;14.83;69.22;100150.41;7399768;19;20384;-64
2023/10/14 09:41:19;;;;;;;12.40;1.95;;;;;;;14.86;69.72;100150.78;7400936;19;20372;-64
2023/10/14 09:43:48;;;;;;;11.05;2.05;;;;;;;14.88;69.56;100166.63;7399533;19;20848;-64
2023/10/14 09:46:17;;;;;;;6.43;1.60;;;;;;;14.92;67.73;100165.16;7402389;19;20355;-64
2023/10/14 09:48:45;;;;;;;6.63;2.10;;;;;;;14.95;66.30;100163.88;7398560;19;20916;-64
2023/10/14 09:51:16;;;;;;;15.73;2.20;;;;;;;14.76;66.09;100193.16;7399594;19;20360;-63
2023/10/14 09:53:48;;;;;;;6.35;1.45;;;;;;;14.73;65.99;100198.94;7397064;19;20882;-65
2023/10/14 09:56:17;;;;;;;7.70;1.65;;;;;;;14.66;67.19;100203.50;7399647;19;21965;-64
2023/10/14 09:58:56;;;;;;;10.10;1.85;;;;;;;14.80;67.37;100185.56;7400108;19;20377;-62
2023/10/14 10:01:24;;;;;;;10.85;2.30;;;;;;;14.90;66.06;100183.25;7399320;19;20922;-64
2023/10/14 10:04:00;;;;;;;8.68;1.80;;;;;;;14.94;65.55;100208.47;7396778;19;20769;-64
2023/10/14 10:06:51;;;;;;;8.02;1.92;;;;;;;14.98;64.51;100223.03;7390817;19;20340;-64
2023/10/14 10:09:29;;;;;;;6.70;1.70;;;;;;;14.99;65.14;100218.50;7397900;19;20381;-64
2023/10/14 10:11:58;;;;;;;7.35;1.38;;;;;;;14.87;64.58;100189.81;7395212;19;20458;-64
2023/10/14 10:14:26;;;;;;;7.40;1.77;;;;;;;14.92;65.71;100207.88;7393290;19;20392;-64
2023/10/14 10:16:56;;;;;;;8.40;2.08;;;;;;;14.96;63.59;100218.94;7396230;19;20364;-64
2023/10/14 10:19:43;;;;;;;7.70;1.92;;;;;;;15.01;64.00;100201.22;7395226;19;20966;-64
2023/10/14 10:22:16;;;;;;;8.27;1.70;;;;;;;15.01;62.95;100206.56;7392738;19;20450;-64
2023/10/14 10:24:47;;;;;;;10.68;2.53;;;;;;;15.07;62.61;100216.41;7396564;19;20380;-64
2023/10/14 10:27:16;;;;;;;10.32;2.00;;;;;;;15.12;62.98;100207.72;7397039;19;20349;-64
2023/10/14 10:29:55;;;;;;;10.85;2.10;;;;;;;15.17;62.86;100228.44;7398142;19;20718;-65
2023/10/14 10:32:29;;;;;;;8.50;2.03;;;;;;;15.19;62.28;100213.03;7396839;19;20369;-64
2023/10/14 10:35:05;;;;;;;9.60;1.83;;;;;;;15.29;61.32;100224.84;7397514;19;20818;-63
2023/10/14 10:37:51;;;;;;;7.90;1.90;;;;;;;15.31;60.60;100229.19;7397180;19;20356;-64
2023/10/14 10:40:25;;;;;;;9.90;2.20;;;;;;;15.45;62.21;100228.84;7397661;19;20705;-64
2023/10/14 10:43:03;;;;;;;7.50;1.90;;;;;;;15.62;63.17;100223.78;7398294;19;20368;-64
2023/10/14 10:45:33;;;;;;;7.05;1.30;;;;;;;15.55;59.05;100233.69;7398197;19;20388;-64
2023/10/14 10:48:04;;;;;;;10.38;1.90;;;;;;;15.67;58.82;100248.00;7400108;19;20365;-64
2023/10/14 10:50:39;;;;;;;11.00;2.30;;;;;;;15.68;59.49;100243.44;7397305;19;20379;-64
2023/10/14 10:53:05;;;;;;;8.48;1.83;;;;;;;15.84;60.07;100242.13;7396016;19;20349;-64
2023/10/14 10:55:37;;;;;;;8.63;1.55;;;;;;;15.95;57.97;100248.59;7395107;19;20364;-64
2023/10/14 10:58:05;;;;;;;8.57;2.20;;;;;;;16.13;58.99;100235.25;7395928;19;20356;-64
2023/10/14 11:00:32;;;;;;;6.07;1.38;;;;;;;16.18;57.13;100242.59;7395666;19;20368;-64
2023/10/14 11:03:01;;;;;;;10.43;2.05;;;;;;;16.30;56.32;100259.56;7395274;19;20411;-64
2023/10/14 11:05:33;;;;;;;6.50;1.75;;;;;;;16.46;56.15;100240.19;7395996;19;20727;-63
2023/10/14 11:08:03;;;;;;;10.48;1.98;;;;;;;16.71;58.64;100258.03;7398173;19;20361;-64
2023/10/14 11:10:39;;;;;;;9.50;1.88;;;;;;;16.59;55.16;100273.22;7394241;19;20879;-64
2023/10/14 11:13:11;;;;;;;6.63;1.88;;;;;;;16.65;55.22;100254.38;7397293;19;20758;-64
2023/10/14 11:15:43;;;;;;;8.57;1.77;;;;;;;16.88;53.78;100244.84;7390363;19;20453;-64
2023/10/14 11:18:11;;;;;;;7.82;1.80;;;;;;;17.24;57.50;100240.41;7395881;19;20368;-66
2023/10/14 11:20:55;;;;;;;7.47;1.83;;;;;;;17.40;52.61;100266.53;7395228;19;20876;-65
2023/10/14 11:23:22;;;;;;;6.95;1.88;;;;;;;17.37;50.44;100261.63;7394809;19;20344;-65
2023/10/14 11:25:53;;;;;;;5.63;1.33;;;;;;;17.37;49.92;100253.59;7395725;19;20440;-66
2023/10/14 11:28:26;;;;;;;7.95;1.50;;;;;;;17.36;50.32;100254.63;7394902;19;21062;-64
2023/10/14 11:30:55;;;;;;;7.25;1.95;;;;;;;17.31;49.84;100243.78;7396267;19;20372;-65
2023/10/14 11:33:22;;;;;;;5.68;1.85;;;;;;;17.30;51.88;100244.84;7396472;19;20414;-65
2023/10/14 11:35:52;;;;;;;10.00;2.20;;;;;;;17.32;50.95;100253.47;7392108;19;20768;-62
2023/10/14 11:38:19;;;;;;;6.45;1.50;;;;;;;17.33;50.50;100245.19;7391135;19;20344;-65
2023/10/14 11:40:48;;;;;;;9.18;2.08;;;;;;;17.41;51.47;100270.84;7392482;19;20354;-64
2023/10/14 11:43:17;;;;;;;6.97;1.50;;;;;;;17.42;52.00;100253.69;7395605;19;20372;-63
2023/10/14 11:45:44;;;;;;;7.13;1.40;;;;;;;17.36;50.80;100233.19;7392541;19;20325;-64
2023/10/14 11:48:37;;;;;;;8.07;2.08;;;;;;;17.45;50.80;100247.91;7394232;19;20369;-62
2023/10/14 11:51:11;;;;;;;6.40;1.48;;;;;;;17.48;51.43;100260.03;7393693;19;20892;-61
2023/10/14 11:53:44;;;;;;;7.15;1.80;;;;;;;17.62;51.62;100247.22;7393857;19;20404;-62
2023/10/14 11:56:14;;;;;;;7.43;1.77;;;;;;;17.79;50.88;100253.53;7393075;19;20413;-64
2023/10/14 11:58:41;;;;;;;5.72;1.50;;;;;;;17.80;49.45;100233.69;7396574;19;20397;-64
2023/10/14 12:01:09;;;;;;;8.32;1.58;;;;;;;18.01;49.43;100242.22;7395241;19;20369;-64
2023/10/14 12:03:37;;;;;;;9.40;1.98;;;;;;;18.25;48.84;100235.75;7396540;19;20759;-64
2023/10/14 12:06:07;;;;;;;5.20;1.67;;;;;;;18.47;49.39;100243.19;7393637;19;20866;-64
2023/10/14 12:08:37;;;;;;;5.38;1.70;;;;;;;18.47;47.53;100243.19;7394332;19;20458;-64
2023/10/14 12:11:14;;;;;;;7.20;1.63;;;;;;;18.49;46.80;100238.41;7395736;19;20419;-65
2023/10/14 12:13:41;;;;;;;5.97;1.50;;;;;;;18.44;47.96;100257.06;7392850;19;20381;-64
2023/10/14 12:16:17;;;;;;;5.90;1.60;;;;;;;18.63;48.02;100244.28;7392082;19;20385;-64
2023/10/14 12:18:49;;;;;;;8.10;1.67;;;;;;;18.89;47.95;100250.97;7395688;19;20344;-64
2023/10/14 12:21:15;;;;;;;6.97;1.98;;;;;;;18.91;45.08;100249.72;7390912;19;20835;-64